Flight Track Log - Related Links

Times and Time Zones

All times are in EDT time to prevent confusion due to time zone crossing. See the EGF4090 flight status page for this flight to view local times or setup timezone preferences in your user account.

Time Position Orientation Groundspeed Altitude Reporting Facility
EDT Latitude Longitude Course Direction KTS MPH feet Rate Location/Type
Tue 11:13:58 PM 41.9333 -87.9833 194° South 198 228 3,000  Level Chicago TRACON
Tue 11:15:00 PM 41.7031 -88.0918 192° South  Level Estimated
Tue 11:15:45 PM 41.8422 -88.0619 213° Southwest 242 278 5,300  Level Chicago Center
Tue 11:16:00 PM 41.6101 -88.1531 189° South  Level Estimated
Tue 11:16:46 PM 41.7642 -88.0592 178° South 278 320 7,000  Level Chicago Center
Tue 11:17:00 PM 41.5185 -88.0884 152° Southeast  Level FlightAware
Tue 11:17:47 PM 41.6817 -88.0506 176° South 295 339 9,100  Level Chicago Center
Tue 11:18:00 PM 41.4261 -88.1509 194° South  Level Estimated
Tue 11:18:48 PM 41.5964 -88.0450 177° South 306 352 10,500  Level Chicago Center
Tue 11:19:00 PM 41.3367 -88.2113 194° South  Level Estimated
Tue 11:19:49 PM 41.5083 -88.0383 177° South 317 365 12,200  Level Chicago Center
Tue 11:20:50 PM 41.4194 -88.0894 203° Southwest 333 383 13,100 836 Climbing Chicago Center
Tue 11:21:51 PM 41.3317 -88.1519 208° Southwest 345 397 13,900 738 Climbing Chicago Center
Tue 11:22:52 PM 41.2422 -88.2139 208° Southwest 363 418 14,600 836 Climbing Chicago Center
Tue 11:23:53 PM 41.1500 -88.2767 207° Southwest 373 429 15,600 984 Climbing Chicago Center
Tue 11:24:54 PM 41.0567 -88.3397 207° Southwest 377 434 16,600 984 Climbing Chicago Center
Tue 11:25:55 PM 40.9639 -88.4025 207° Southwest 377 434 17,600 984 Climbing Chicago Center
Tue 11:26:56 PM 40.8711 -88.4653 207° Southwest 377 434 18,600 1,033 Climbing Chicago Center
Tue 11:27:57 PM 40.7561 -88.5431 207° Southwest 387 445 19,700 984 Climbing Chicago Center
Tue 11:28:58 PM 40.6592 -88.6075 207° Southwest 392 451 20,600 934 Climbing Chicago Center
Tue 11:29:59 PM 40.5606 -88.6739 207° Southwest 399 459 21,600 927 Climbing Chicago Center
Tue 11:31:01 PM 40.4608 -88.7403 207° Southwest 402 463 22,500 927 Climbing Chicago Center
Tue 11:32:02 PM 40.3553 -88.8094 207° Southwest 402 463 23,500 984 Climbing Chicago Center
Tue 11:33:03 PM 40.2547 -88.8750 206° Southwest 403 464 24,500 934 Climbing Chicago Center
Tue 11:34:04 PM 40.1542 -88.9417 207° Southwest 402 463 25,400 927 Climbing Chicago Center
Tue 11:35:06 PM 40.0539 -89.0067 206° Southwest 402 463 26,400 984 Climbing Chicago Center
Tue 11:36:06 PM 39.9525 -89.0733 207° Southwest 405 466 27,400 934 Climbing Chicago Center
Tue 11:37:08 PM 39.8522 -89.1408 207° Southwest 403 464 28,300 864 Climbing Kansas Center
Tue 11:38:11 PM 39.7519 -89.2050 206° Southwest 401 461 29,200 968 Climbing Kansas Center
Tue 11:39:12 PM 39.6433 -89.2747 206° Southwest 401 461 30,300 1,008 Climbing Kansas Center
Tue 11:40:10 PM 39.5439 -89.3397 207° Southwest 400 460 31,200 934 Climbing Kansas Center
Tue 11:41:14 PM 39.4433 -89.4031 206° Southwest 401 461 32,200 912 Climbing Kansas Center
Tue 11:42:15 PM 39.3431 -89.4672 206° Southwest 402 463 33,100 885 Climbing Kansas Center
Tue 11:43:16 PM 39.2411 -89.5333 207° Southwest 407 468 34,000 992 Climbing Kansas Center
Tue 11:44:16 PM 39.1342 -89.6019 206° Southwest 401 461 35,100 992 Climbing Kansas Center
Tue 11:45:17 PM 39.0267 -89.6700 206° Southwest 401 461 36,000 443 Climbing Kansas Center
Tue 11:46:18 PM 38.9256 -89.7344 206° Southwest 405 466 36,000  Level Kansas Center
Tue 11:47:18 PM 38.8358 -89.7894 206° Southwest 412 474 36,000  Level Kansas Center
Tue 11:48:21 PM 38.7278 -89.8575 206° Southwest 425 489 36,000  Level Kansas Center
Tue 11:49:22 PM 38.6183 -89.9242 205° Southwest 431 496 36,000  Level Kansas Center
Tue 11:50:24 PM 38.5000 -89.9608 194° South 437 503 36,000  Level Kansas Center
Tue 11:51:24 PM 38.3769 -89.9775 186° South 440 506 36,000  Level Kansas Center
Tue 11:52:26 PM 38.2447 -90.0583 206° Southwest 441 507 36,000  Level Kansas Center
Tue 11:53:27 PM 38.1381 -90.1306 208° Southwest 435 501 36,000  Level Kansas Center
Tue 11:54:27 PM 38.0308 -90.2000 207° Southwest 433 498 36,000  Level Kansas Center
Tue 11:55:28 PM 37.9236 -90.2675 206° Southwest 431 496 36,000  Level Kansas Center
Tue 11:56:28 PM 37.8161 -90.3394 208° Southwest 434 499 36,000  Level Kansas Center
Tue 11:57:30 PM 37.7086 -90.4103 208° Southwest 436 502 36,000  Level Kansas Center
Tue 11:58:31 PM 37.6000 -90.4742 205° Southwest 434 499 36,000  Level Kansas Center
Tue 11:59:33 PM 37.4939 -90.5464 208° Southwest 434 499 36,000  Level Kansas Center
Wed 12:00:34 AM 37.3850 -90.6139 206° Southwest 434 499 36,000  Level Kansas Center
Wed 12:01:33 AM 37.2833 -90.6769 206° Southwest 430 495 36,000  Level Kansas Center
Wed 12:02:33 AM 37.1547 -90.7575 207° Southwest 431 496 36,000  Level Kansas Center
Wed 12:03:37 AM 37.0486 -90.8236 206° Southwest 429 494 36,000  Level Kansas Center
Wed 12:04:38 AM 36.9422 -90.8906 207° Southwest 428 493 36,000 -303 Level Kansas Center
Wed 12:05:36 AM 36.8353 -90.9569 206° Southwest 429 494 35,400 -1,311 Descending Kansas Center
Wed 12:06:37 AM 36.7297 -91.0219 206° Southwest 427 491 33,400 -1,935 Descending Kansas Center
Wed 12:07:40 AM 36.6233 -91.0878 206° Southwest 427 491 31,400 -1,967 Descending Kansas Center
Wed 12:08:39 AM 36.5183 -91.1517 206° Southwest 424 488 29,400 -2,129 Descending Kansas Center
Wed 12:09:44 AM 36.3869 -91.2361 207° Southwest 435 501 27,000 -2,112 Descending Memphis Center
Wed 12:10:44 AM 36.2761 -91.3017 205° Southwest 440 506 25,000 -2,000 Descending Memphis Center
Wed 12:11:44 AM 36.1628 -91.3725 207° Southwest 440 506 23,000 -2,000 Descending Memphis Center
Wed 12:12:44 AM 36.0539 -91.4378 206° Southwest 446 513 21,000 -1,850 Descending Memphis Center
Wed 12:13:44 AM 35.9511 -91.5006 206° Southwest 432 497 19,300 -1,600 Descending Memphis Center
Wed 12:14:44 AM 35.8442 -91.5631 205° Southwest 423 487 17,800 -1,500 Descending Memphis Center
Wed 12:15:44 AM 35.7436 -91.6281 208° Southwest 423 487 16,300 -1,500 Descending Memphis Center
Wed 12:16:44 AM 35.6450 -91.6856 205° Southwest 413 475 14,800 -1,350 Descending Memphis Center
Wed 12:17:44 AM 35.5567 -91.7378 206° Southwest 407 468 13,600 -1,442 Descending Memphis Center
Wed 12:18:28 AM 35.4792 -91.7847 206° Southwest 384 442 12,300 -1,500 Descending Memphis Center
Wed 12:18:44 AM 35.4581 -91.7947 201° Southwest 396 456 12,100 -1,279 Descending Memphis Center
Wed 12:19:29 AM 35.3781 -91.8467 208° Southwest 374 430 11,000 -1,200 Descending Memphis Center
Wed 12:19:44 AM 35.3678 -91.8517 202° Southwest 384 442 10,900 -700 Descending Memphis Center
Wed 12:20:29 AM 35.2942 -91.8911 204° Southwest 340 391 10,300 -700 Descending Memphis Center
Wed 12:20:44 AM 35.2794 -91.8983 202° Southwest 370 426 10,200 -984 Descending Memphis Center
Wed 12:21:30 AM 35.2186 -91.9278 202° Southwest 259 298 9,300 -1,346 Descending Memphis Center
Wed 12:22:31 AM 35.1472 -91.9619 201° Southwest 255 293 7,800 -1,388 Descending Memphis Center
Wed 12:23:31 AM 35.0803 -91.9911 200° South 265 305 6,500 -1,339 Descending Memphis Center
Wed 12:24:32 AM 35.0108 -92.0278 203° Southwest 259 298 5,100 -1,131 Descending Memphis Center
Wed 12:25:33 AM 34.9478 -92.0569 201° Southwest 247 284 4,200 -645 Descending Memphis Center
Wed 12:26:33 AM 34.8869 -92.0861 201° Southwest 231 266 3,800 -694 Descending Memphis Center
Wed 12:27:34 AM 34.8281 -92.1153 202° Southwest 220 253 2,800 -984 Descending Memphis Center

Login

Don't have an account? Register now (free) for customized features, flight alerts, and more!